sensor_id;sensor_type;location;lat;lon;timestamp;temperature;humidity
16479;DHT22;8350;52.316;10.530;2022-09-03T00:01:18;14.80;1.00
16479;DHT22;8350;52.316;10.530;2022-09-03T00:03:50;14.60;1.00
16479;DHT22;8350;52.316;10.530;2022-09-03T00:06:22;14.50;1.00
16479;DHT22;8350;52.316;10.530;2022-09-03T00:08:56;14.40;1.00
16479;DHT22;8350;52.316;10.530;2022-09-03T00:11:27;14.40;1.00
16479;DHT22;8350;52.316;10.530;2022-09-03T00:13:58;14.20;1.00
16479;DHT22;8350;52.316;10.530;2022-09-03T00:16:36;14.00;1.00
16479;DHT22;8350;52.316;10.530;2022-09-03T00:19:06;14.00;1.00
16479;DHT22;8350;52.316;10.530;2022-09-03T00:21:37;13.80;1.00
16479;DHT22;8350;52.316;10.530;2022-09-03T00:24:09;13.80;1.00
16479;DHT22;8350;52.316;10.530;2022-09-03T00:26:41;13.90;1.00
16479;DHT22;8350;52.316;10.530;2022-09-03T00:29:14;13.90;1.00
16479;DHT22;8350;52.316;10.530;2022-09-03T00:31:46;13.90;1.00
16479;DHT22;8350;52.316;10.530;2022-09-03T00:34:19;13.80;1.00
16479;DHT22;8350;52.316;10.530;2022-09-03T00:36:47;13.80;1.00
16479;DHT22;8350;52.316;10.530;2022-09-03T00:39:16;13.80;1.00
16479;DHT22;8350;52.316;10.530;2022-09-03T00:41:53;13.80;1.00
16479;DHT22;8350;52.316;10.530;2022-09-03T00:44:53;13.80;1.00
16479;DHT22;8350;52.316;10.530;2022-09-03T00:47:29;13.80;1.00
16479;DHT22;8350;52.316;10.530;2022-09-03T00:50:08;13.70;1.00
16479;DHT22;8350;52.316;10.530;2022-09-03T00:52:43;13.70;1.00
16479;DHT22;8350;52.316;10.530;2022-09-03T00:55:18;13.60;1.00
16479;DHT22;8350;52.316;10.530;2022-09-03T00:57:56;13.60;1.00
16479;DHT22;8350;52.316;10.530;2022-09-03T01:00:25;13.50;1.00
16479;DHT22;8350;52.316;10.530;2022-09-03T01:03:04;13.50;1.00
16479;DHT22;8350;52.316;10.530;2022-09-03T01:05:43;13.40;1.00
16479;DHT22;8350;52.316;10.530;2022-09-03T01:08:34;13.40;1.00
16479;DHT22;8350;52.316;10.530;2022-09-03T01:11:14;13.40;1.00
16479;DHT22;8350;52.316;10.530;2022-09-03T01:13:51;13.30;1.00
16479;DHT22;8350;52.316;10.530;2022-09-03T01:16:25;13.30;1.00
16479;DHT22;8350;52.316;10.530;2022-09-03T01:19:02;13.30;1.00
16479;DHT22;8350;52.316;10.530;2022-09-03T01:21:52;13.30;1.00
16479;DHT22;8350;52.316;10.530;2022-09-03T01:30:24;13.20;1.00
16479;DHT22;8350;52.316;10.530;2022-09-03T01:32:57;13.30;1.00
16479;DHT22;8350;52.316;10.530;2022-09-03T01:35:35;13.40;1.00
16479;DHT22;8350;52.316;10.530;2022-09-03T01:38:14;13.50;1.00
16479;DHT22;8350;52.316;10.530;2022-09-03T01:40:52;13.70;1.00
16479;DHT22;8350;52.316;10.530;2022-09-03T01:43:33;13.80;1.00
16479;DHT22;8350;52.316;10.530;2022-09-03T01:46:10;13.90;1.00
16479;DHT22;8350;52.316;10.530;2022-09-03T01:48:44;14.00;1.00
16479;DHT22;8350;52.316;10.530;2022-09-03T01:51:18;14.00;1.00
16479;DHT22;8350;52.316;10.530;2022-09-03T01:54:05;14.10;1.00
16479;DHT22;8350;52.316;10.530;2022-09-03T01:56:48;14.10;1.00
16479;DHT22;8350;52.316;10.530;2022-09-03T01:59:25;14.10;1.00
16479;DHT22;8350;52.316;10.530;2022-09-03T02:02:00;14.10;1.00
16479;DHT22;8350;52.316;10.530;2022-09-03T02:04:28;14.20;1.00
16479;DHT22;8350;52.316;10.530;2022-09-03T02:06:57;14.10;1.00
16479;DHT22;8350;52.316;10.530;2022-09-03T02:09:25;14.20;1.00
16479;DHT22;8350;52.316;10.530;2022-09-03T02:11:55;14.10;1.00
16479;DHT22;8350;52.316;10.530;2022-09-03T02:14:26;14.10;1.00
16479;DHT22;8350;52.316;10.530;2022-09-03T02:16:57;14.20;1.00
16479;DHT22;8350;52.316;10.530;2022-09-03T02:19:26;14.10;1.00
16479;DHT22;8350;52.316;10.530;2022-09-03T02:21:55;14.10;1.00
16479;DHT22;8350;52.316;10.530;2022-09-03T02:24:22;13.90;1.00
16479;DHT22;8350;52.316;10.530;2022-09-03T02:26:50;13.80;1.00
16479;DHT22;8350;52.316;10.530;2022-09-03T02:29:17;13.30;1.00
16479;DHT22;8350;52.316;10.530;2022-09-03T02:31:44;13.00;1.00
16479;DHT22;8350;52.316;10.530;2022-09-03T02:34:12;12.90;1.00
16479;DHT22;8350;52.316;10.530;2022-09-03T02:36:41;12.80;1.00
16479;DHT22;8350;52.316;10.530;2022-09-03T02:39:10;12.70;1.00
16479;DHT22;8350;52.316;10.530;2022-09-03T02:41:37;12.50;1.00
16479;DHT22;8350;52.316;10.530;2022-09-03T02:44:07;12.40;1.00
16479;DHT22;8350;52.316;10.530;2022-09-03T02:46:38;12.40;1.00
16479;DHT22;8350;52.316;10.530;2022-09-03T02:49:07;12.30;1.00
16479;DHT22;8350;52.316;10.530;2022-09-03T02:51:36;12.10;1.00
16479;DHT22;8350;52.316;10.530;2022-09-03T02:54:08;12.20;1.00
16479;DHT22;8350;52.316;10.530;2022-09-03T02:56:35;12.20;1.00
16479;DHT22;8350;52.316;10.530;2022-09-03T02:59:04;12.10;1.00
16479;DHT22;8350;52.316;10.530;2022-09-03T03:01:31;12.00;1.00
16479;DHT22;8350;52.316;10.530;2022-09-03T03:03:58;11.90;1.00
16479;DHT22;8350;52.316;10.530;2022-09-03T03:06:25;11.90;1.00
16479;DHT22;8350;52.316;10.530;2022-09-03T03:08:54;11.90;1.00
16479;DHT22;8350;52.316;10.530;2022-09-03T03:11:22;11.90;1.00
16479;DHT22;8350;52.316;10.530;2022-09-03T03:14:01;11.80;1.00
16479;DHT22;8350;52.316;10.530;2022-09-03T03:16:28;11.70;1.00
16479;DHT22;8350;52.316;10.530;2022-09-03T03:18:55;11.70;1.00
16479;DHT22;8350;52.316;10.530;2022-09-03T03:21:22;11.60;1.00
16479;DHT22;8350;52.316;10.530;2022-09-03T03:23:49;11.60;1.00
16479;DHT22;8350;52.316;10.530;2022-09-03T03:26:21;11.60;1.00
16479;DHT22;8350;52.316;10.530;2022-09-03T03:28:50;11.60;1.00
16479;DHT22;8350;52.316;10.530;2022-09-03T03:31:28;11.60;1.00
16479;DHT22;8350;52.316;10.530;2022-09-03T03:33:57;11.70;1.00
16479;DHT22;8350;52.316;10.530;2022-09-03T03:36:27;11.70;1.00
16479;DHT22;8350;52.316;10.530;2022-09-03T03:38:55;11.80;1.00
16479;DHT22;8350;52.316;10.530;2022-09-03T03:41:25;11.90;1.00
16479;DHT22;8350;52.316;10.530;2022-09-03T03:43:52;12.00;1.00
16479;DHT22;8350;52.316;10.530;2022-09-03T03:46:20;11.90;1.00
16479;DHT22;8350;52.316;10.530;2022-09-03T03:48:48;12.00;1.00
16479;DHT22;8350;52.316;10.530;2022-09-03T03:51:15;11.90;1.00
16479;DHT22;8350;52.316;10.530;2022-09-03T03:53:42;11.90;1.00
16479;DHT22;8350;52.316;10.530;2022-09-03T03:56:11;11.90;1.00
16479;DHT22;8350;52.316;10.530;2022-09-03T03:58:40;11.80;1.00
16479;DHT22;8350;52.316;10.530;2022-09-03T04:01:57;11.80;1.00
16479;DHT22;8350;52.316;10.530;2022-09-03T04:04:17;11.70;1.00
16479;DHT22;8350;52.316;10.530;2022-09-03T04:06:44;11.70;1.00
16479;DHT22;8350;52.316;10.530;2022-09-03T04:09:11;11.70;1.00
16479;DHT22;8350;52.316;10.530;2022-09-03T04:11:38;11.60;1.00
16479;DHT22;8350;52.316;10.530;2022-09-03T04:14:06;11.50;1.00
16479;DHT22;8350;52.316;10.530;2022-09-03T04:16:34;11.40;1.00
16479;DHT22;8350;52.316;10.530;2022-09-03T04:19:00;11.40;1.00
16479;DHT22;8350;52.316;10.530;2022-09-03T04:21:29;11.40;1.00
16479;DHT22;8350;52.316;10.530;2022-09-03T04:23:57;11.40;1.00
16479;DHT22;8350;52.316;10.530;2022-09-03T04:26:25;11.40;1.00
16479;DHT22;8350;52.316;10.530;2022-09-03T04:28:55;11.40;1.00
16479;DHT22;8350;52.316;10.530;2022-09-03T04:31:24;11.30;1.00
16479;DHT22;8350;52.316;10.530;2022-09-03T04:33:51;11.30;1.00
16479;DHT22;8350;52.316;10.530;2022-09-03T04:36:20;11.10;1.00
16479;DHT22;8350;52.316;10.530;2022-09-03T04:38:49;11.10;1.00
16479;DHT22;8350;52.316;10.530;2022-09-03T04:41:18;11.20;1.00
16479;DHT22;8350;52.316;10.530;2022-09-03T04:43:46;11.10;1.00
16479;DHT22;8350;52.316;10.530;2022-09-03T04:46:13;11.10;1.00
16479;DHT22;8350;52.316;10.530;2022-09-03T04:48:42;11.10;2.60
16479;DHT22;8350;52.316;10.530;2022-09-03T04:51:11;11.10;1.80
16479;DHT22;8350;52.316;10.530;2022-09-03T04:53:40;11.10;4.00
16479;DHT22;8350;52.316;10.530;2022-09-03T04:56:12;11.10;5.30
16479;DHT22;8350;52.316;10.530;2022-09-03T04:58:40;11.20;6.90
16479;DHT22;8350;52.316;10.530;2022-09-03T05:01:15;11.70;1.00
16479;DHT22;8350;52.316;10.530;2022-09-03T05:03:44;12.50;1.00
16479;DHT22;8350;52.316;10.530;2022-09-03T05:06:11;13.30;1.00
16479;DHT22;8350;52.316;10.530;2022-09-03T05:08:39;14.00;1.00
16479;DHT22;8350;52.316;10.530;2022-09-03T05:11:06;14.40;1.00
16479;DHT22;8350;52.316;10.530;2022-09-03T05:13:34;14.50;1.00
16479;DHT22;8350;52.316;10.530;2022-09-03T05:16:03;14.30;1.00
16479;DHT22;8350;52.316;10.530;2022-09-03T05:18:31;14.50;1.00
16479;DHT22;8350;52.316;10.530;2022-09-03T05:21:04;15.00;1.00
16479;DHT22;8350;52.316;10.530;2022-09-03T05:23:34;15.60;1.00
16479;DHT22;8350;52.316;10.530;2022-09-03T05:26:04;15.90;99.90
16479;DHT22;8350;52.316;10.530;2022-09-03T05:28:34;16.10;99.90
16479;DHT22;8350;52.316;10.530;2022-09-03T05:31:02;16.40;99.90
16479;DHT22;8350;52.316;10.530;2022-09-03T05:33:32;16.90;1.00
16479;DHT22;8350;52.316;10.530;2022-09-03T05:36:02;17.30;1.00
16479;DHT22;8350;52.316;10.530;2022-09-03T05:38:30;17.50;1.00
16479;DHT22;8350;52.316;10.530;2022-09-03T05:40:58;17.70;99.90
16479;DHT22;8350;52.316;10.530;2022-09-03T05:43:26;17.80;99.90
16479;DHT22;8350;52.316;10.530;2022-09-03T05:45:56;18.00;1.00
16479;DHT22;8350;52.316;10.530;2022-09-03T05:48:28;18.00;1.00
16479;DHT22;8350;52.316;10.530;2022-09-03T05:50:59;18.20;1.00
16479;DHT22;8350;52.316;10.530;2022-09-03T05:53:28;18.20;99.90
16479;DHT22;8350;52.316;10.530;2022-09-03T05:55:56;18.20;99.90
16479;DHT22;8350;52.316;10.530;2022-09-03T05:58:23;18.20;99.90
16479;DHT22;8350;52.316;10.530;2022-09-03T06:00:51;18.20;99.90
16479;DHT22;8350;52.316;10.530;2022-09-03T06:03:18;18.10;99.90
16479;DHT22;8350;52.316;10.530;2022-09-03T06:05:49;18.20;99.90
16479;DHT22;8350;52.316;10.530;2022-09-03T06:08:17;18.30;99.90
16479;DHT22;8350;52.316;10.530;2022-09-03T06:10:45;18.20;99.90
16479;DHT22;8350;52.316;10.530;2022-09-03T06:13:12;18.30;99.90
16479;DHT22;8350;52.316;10.530;2022-09-03T06:15:39;18.10;99.90
16479;DHT22;8350;52.316;10.530;2022-09-03T06:18:06;18.10;99.90
16479;DHT22;8350;52.316;10.530;2022-09-03T06:20:34;18.10;99.90
16479;DHT22;8350;52.316;10.530;2022-09-03T06:23:01;18.00;99.90
16479;DHT22;8350;52.316;10.530;2022-09-03T06:25:28;17.90;99.90
16479;DHT22;8350;52.316;10.530;2022-09-03T06:27:57;17.70;1.00
16479;DHT22;8350;52.316;10.530;2022-09-03T06:30:24;17.70;1.00
16479;DHT22;8350;52.316;10.530;2022-09-03T06:32:51;17.40;1.00
16479;DHT22;8350;52.316;10.530;2022-09-03T06:35:18;17.30;1.00
16479;DHT22;8350;52.316;10.530;2022-09-03T06:37:46;17.20;1.00
16479;DHT22;8350;52.316;10.530;2022-09-03T06:40:13;17.20;1.00
16479;DHT22;8350;52.316;10.530;2022-09-03T06:42:55;17.20;23.10
16479;DHT22;8350;52.316;10.530;2022-09-03T06:45:30;17.20;99.90
16479;DHT22;8350;52.316;10.530;2022-09-03T06:47:57;17.20;99.90
16479;DHT22;8350;52.316;10.530;2022-09-03T06:50:24;17.40;99.90
16479;DHT22;8350;52.316;10.530;2022-09-03T06:52:51;17.30;99.90
16479;DHT22;8350;52.316;10.530;2022-09-03T06:55:20;17.30;99.90
16479;DHT22;8350;52.316;10.530;2022-09-03T06:57:47;17.30;99.90
16479;DHT22;8350;52.316;10.530;2022-09-03T07:00:15;17.30;99.90
16479;DHT22;8350;52.316;10.530;2022-09-03T07:02:44;17.40;99.90
16479;DHT22;8350;52.316;10.530;2022-09-03T07:05:13;17.40;99.90
16479;DHT22;8350;52.316;10.530;2022-09-03T07:07:40;17.40;99.90
16479;DHT22;8350;52.316;10.530;2022-09-03T07:10:09;17.40;99.90
16479;DHT22;8350;52.316;10.530;2022-09-03T07:12:38;17.30;99.90
16479;DHT22;8350;52.316;10.530;2022-09-03T07:15:06;17.40;99.90
16479;DHT22;8350;52.316;10.530;2022-09-03T07:17:33;17.30;99.90
16479;DHT22;8350;52.316;10.530;2022-09-03T07:20:01;17.30;99.90
16479;DHT22;8350;52.316;10.530;2022-09-03T07:22:28;17.30;99.90
16479;DHT22;8350;52.316;10.530;2022-09-03T07:24:58;17.50;99.90
16479;DHT22;8350;52.316;10.530;2022-09-03T07:27:28;17.50;99.90
16479;DHT22;8350;52.316;10.530;2022-09-03T07:29:59;17.60;99.90
16479;DHT22;8350;52.316;10.530;2022-09-03T07:32:27;17.90;99.90
16479;DHT22;8350;52.316;10.530;2022-09-03T07:34:57;18.10;99.90
16479;DHT22;8350;52.316;10.530;2022-09-03T07:37:27;18.30;1.00
16479;DHT22;8350;52.316;10.530;2022-09-03T07:39:54;18.30;1.00
16479;DHT22;8350;52.316;10.530;2022-09-03T07:42:22;18.30;1.00
16479;DHT22;8350;52.316;10.530;2022-09-03T07:44:49;18.50;1.00
16479;DHT22;8350;52.316;10.530;2022-09-03T07:47:16;18.70;1.00
16479;DHT22;8350;52.316;10.530;2022-09-03T07:49:44;18.70;1.00
16479;DHT22;8350;52.316;10.530;2022-09-03T07:52:11;18.70;99.90
16479;DHT22;8350;52.316;10.530;2022-09-03T07:54:40;18.80;1.00
16479;DHT22;8350;52.316;10.530;2022-09-03T07:57:09;18.80;99.90
16479;DHT22;8350;52.316;10.530;2022-09-03T07:59:36;19.10;99.90
16479;DHT22;8350;52.316;10.530;2022-09-03T08:02:03;19.20;99.90
16479;DHT22;8350;52.316;10.530;2022-09-03T08:04:30;19.30;99.90
16479;DHT22;8350;52.316;10.530;2022-09-03T08:06:58;19.40;16.80
16479;DHT22;8350;52.316;10.530;2022-09-03T08:09:29;19.70;1.00
16479;DHT22;8350;52.316;10.530;2022-09-03T08:11:58;19.70;1.00
16479;DHT22;8350;52.316;10.530;2022-09-03T08:14:26;19.70;1.00
16479;DHT22;8350;52.316;10.530;2022-09-03T08:16:54;19.70;99.90
16479;DHT22;8350;52.316;10.530;2022-09-03T08:19:21;19.80;99.90
16479;DHT22;8350;52.316;10.530;2022-09-03T08:21:48;19.70;99.90
16479;DHT22;8350;52.316;10.530;2022-09-03T08:24:16;19.80;99.90
16479;DHT22;8350;52.316;10.530;2022-09-03T08:26:45;20.00;5.50
16479;DHT22;8350;52.316;10.530;2022-09-03T08:29:14;20.00;1.00
16479;DHT22;8350;52.316;10.530;2022-09-03T08:31:41;20.00;1.00
16479;DHT22;8350;52.316;10.530;2022-09-03T08:34:09;20.30;1.00
16479;DHT22;8350;52.316;10.530;2022-09-03T08:36:38;20.50;1.00
16479;DHT22;8350;52.316;10.530;2022-09-03T08:39:07;20.50;1.00
16479;DHT22;8350;52.316;10.530;2022-09-03T08:44:26;20.60;99.90
16479;DHT22;8350;52.316;10.530;2022-09-03T08:46:58;20.60;38.00
16479;DHT22;8350;52.316;10.530;2022-09-03T08:49:43;20.60;6.70
16479;DHT22;8350;52.316;10.530;2022-09-03T08:52:21;20.80;19.10
16479;DHT22;8350;52.316;10.530;2022-09-03T08:54:51;20.90;1.00
16479;DHT22;8350;52.316;10.530;2022-09-03T08:57:22;20.90;1.00
16479;DHT22;8350;52.316;10.530;2022-09-03T08:59:53;21.10;1.00
16479;DHT22;8350;52.316;10.530;2022-09-03T09:02:28;21.20;1.00
16479;DHT22;8350;52.316;10.530;2022-09-03T09:05:01;21.30;99.90
16479;DHT22;8350;52.316;10.530;2022-09-03T09:07:35;21.50;99.90
16479;DHT22;8350;52.316;10.530;2022-09-03T09:10:11;21.70;1.00
16479;DHT22;8350;52.316;10.530;2022-09-03T09:12:46;21.50;99.90
16479;DHT22;8350;52.316;10.530;2022-09-03T09:15:27;21.50;1.00
16479;DHT22;8350;52.316;10.530;2022-09-03T09:18:06;21.60;1.00
16479;DHT22;8350;52.316;10.530;2022-09-03T09:20:41;21.60;1.00
16479;DHT22;8350;52.316;10.530;2022-09-03T09:23:12;21.80;1.00
16479;DHT22;8350;52.316;10.530;2022-09-03T09:25:45;21.90;1.00
16479;DHT22;8350;52.316;10.530;2022-09-03T09:28:16;21.80;1.00
16479;DHT22;8350;52.316;10.530;2022-09-03T09:30:46;22.00;1.00
16479;DHT22;8350;52.316;10.530;2022-09-03T09:33:14;21.90;99.90
16479;DHT22;8350;52.316;10.530;2022-09-03T09:35:41;21.90;99.90
16479;DHT22;8350;52.316;10.530;2022-09-03T09:38:09;21.80;72.50
16479;DHT22;8350;52.316;10.530;2022-09-03T09:40:38;21.90;63.30
16479;DHT22;8350;52.316;10.530;2022-09-03T09:43:08;22.10;51.70
16479;DHT22;8350;52.316;10.530;2022-09-03T09:45:37;22.30;1.00
16479;DHT22;8350;52.316;10.530;2022-09-03T09:48:15;22.40;1.00
16479;DHT22;8350;52.316;10.530;2022-09-03T09:50:43;22.30;1.00
16479;DHT22;8350;52.316;10.530;2022-09-03T09:53:11;22.40;1.00
16479;DHT22;8350;52.316;10.530;2022-09-03T09:55:49;22.20;1.00
16479;DHT22;8350;52.316;10.530;2022-09-03T09:58:19;22.20;1.00
16479;DHT22;8350;52.316;10.530;2022-09-03T10:00:58;22.20;1.00
16479;DHT22;8350;52.316;10.530;2022-09-03T10:03:30;22.30;1.00
16479;DHT22;8350;52.316;10.530;2022-09-03T10:06:07;22.50;1.00
16479;DHT22;8350;52.316;10.530;2022-09-03T10:09:07;22.70;99.90
16479;DHT22;8350;52.316;10.530;2022-09-03T10:11:37;22.70;99.90
16479;DHT22;8350;52.316;10.530;2022-09-03T10:14:10;22.40;99.90
16479;DHT22;8350;52.316;10.530;2022-09-03T10:16:41;22.20;99.90
16479;DHT22;8350;52.316;10.530;2022-09-03T10:19:17;22.10;99.90
16479;DHT22;8350;52.316;10.530;2022-09-03T10:21:52;22.30;99.90
16479;DHT22;8350;52.316;10.530;2022-09-03T10:24:32;22.50;99.90
16479;DHT22;8350;52.316;10.530;2022-09-03T10:27:05;22.60;99.90
16479;DHT22;8350;52.316;10.530;2022-09-03T10:29:35;22.60;99.90
16479;DHT22;8350;52.316;10.530;2022-09-03T10:32:15;22.50;99.90
16479;DHT22;8350;52.316;10.530;2022-09-03T10:34:56;22.50;99.90
16479;DHT22;8350;52.316;10.530;2022-09-03T10:37:33;22.60;99.90
16479;DHT22;8350;52.316;10.530;2022-09-03T10:40:20;22.70;99.90
16479;DHT22;8350;52.316;10.530;2022-09-03T10:43:03;22.70;96.90
16479;DHT22;8350;52.316;10.530;2022-09-03T10:45:36;22.50;69.80
16479;DHT22;8350;52.316;10.530;2022-09-03T10:48:29;22.60;65.20
16479;DHT22;8350;52.316;10.530;2022-09-03T10:51:02;22.70;55.10
16479;DHT22;8350;52.316;10.530;2022-09-03T10:53:50;22.90;65.10
16479;DHT22;8350;52.316;10.530;2022-09-03T10:56:24;23.10;4.00
16479;DHT22;8350;52.316;10.530;2022-09-03T10:59:02;23.20;1.00
16479;DHT22;8350;52.316;10.530;2022-09-03T11:01:38;23.20;1.00
16479;DHT22;8350;52.316;10.530;2022-09-03T11:04:19;23.20;1.00
16479;DHT22;8350;52.316;10.530;2022-09-03T11:06:53;23.30;1.00
16479;DHT22;8350;52.316;10.530;2022-09-03T11:09:23;23.50;1.00
16479;DHT22;8350;52.316;10.530;2022-09-03T11:11:56;23.30;1.00
16479;DHT22;8350;52.316;10.530;2022-09-03T11:14:31;23.40;1.00
16479;DHT22;8350;52.316;10.530;2022-09-03T11:17:04;23.40;1.00
16479;DHT22;8350;52.316;10.530;2022-09-03T11:19:35;23.40;1.00
16479;DHT22;8350;52.316;10.530;2022-09-03T11:22:06;23.40;1.00
16479;DHT22;8350;52.316;10.530;2022-09-03T11:24:36;23.50;1.00
16479;DHT22;8350;52.316;10.530;2022-09-03T11:27:29;23.50;1.00
16479;DHT22;8350;52.316;10.530;2022-09-03T11:30:01;23.60;1.00
16479;DHT22;8350;52.316;10.530;2022-09-03T11:32:41;23.60;1.00
16479;DHT22;8350;52.316;10.530;2022-09-03T11:35:15;23.70;1.00
16479;DHT22;8350;52.316;10.530;2022-09-03T11:37:52;23.80;1.00
16479;DHT22;8350;52.316;10.530;2022-09-03T11:40:28;24.00;1.00
16479;DHT22;8350;52.316;10.530;2022-09-03T11:43:06;24.00;1.00
16479;DHT22;8350;52.316;10.530;2022-09-03T11:45:35;23.90;1.00
16479;DHT22;8350;52.316;10.530;2022-09-03T11:48:16;23.80;1.00
16479;DHT22;8350;52.316;10.530;2022-09-03T11:50:52;23.80;1.00
16479;DHT22;8350;52.316;10.530;2022-09-03T11:53:24;23.70;1.00
16479;DHT22;8350;52.316;10.530;2022-09-03T11:55:54;23.90;1.00
16479;DHT22;8350;52.316;10.530;2022-09-03T11:58:25;24.10;1.00
16479;DHT22;8350;52.316;10.530;2022-09-03T12:00:52;24.40;1.00
16479;DHT22;8350;52.316;10.530;2022-09-03T12:03:25;24.10;1.00
16479;DHT22;8350;52.316;10.530;2022-09-03T12:06:09;23.80;1.00
16479;DHT22;8350;52.316;10.530;2022-09-03T12:09:07;23.50;1.00
16479;DHT22;8350;52.316;10.530;2022-09-03T12:11:47;23.20;1.00
16479;DHT22;8350;52.316;10.530;2022-09-03T12:14:22;23.10;1.00
16479;DHT22;8350;52.316;10.530;2022-09-03T12:16:59;22.90;1.00
16479;DHT22;8350;52.316;10.530;2022-09-03T12:19:36;23.20;1.00
16479;DHT22;8350;52.316;10.530;2022-09-03T12:22:03;23.60;1.00
16479;DHT22;8350;52.316;10.530;2022-09-03T12:24:32;23.80;1.00
16479;DHT22;8350;52.316;10.530;2022-09-03T12:27:00;24.00;1.00
16479;DHT22;8350;52.316;10.530;2022-09-03T12:29:29;24.20;1.00
16479;DHT22;8350;52.316;10.530;2022-09-03T12:32:05;23.90;99.90
16479;DHT22;8350;52.316;10.530;2022-09-03T12:34:33;24.00;99.90
16479;DHT22;8350;52.316;10.530;2022-09-03T12:37:00;24.00;99.90
16479;DHT22;8350;52.316;10.530;2022-09-03T12:39:28;24.20;99.90
16479;DHT22;8350;52.316;10.530;2022-09-03T12:42:00;24.30;99.90
16479;DHT22;8350;52.316;10.530;2022-09-03T12:44:30;24.30;99.90
16479;DHT22;8350;52.316;10.530;2022-09-03T12:47:02;24.40;99.90
16479;DHT22;8350;52.316;10.530;2022-09-03T12:49:34;24.30;99.90
16479;DHT22;8350;52.316;10.530;2022-09-03T12:52:05;24.30;99.90
16479;DHT22;8350;52.316;10.530;2022-09-03T12:54:36;24.40;99.90
16479;DHT22;8350;52.316;10.530;2022-09-03T12:57:08;24.40;99.90
16479;DHT22;8350;52.316;10.530;2022-09-03T12:59:36;24.40;99.90
16479;DHT22;8350;52.316;10.530;2022-09-03T13:02:10;24.40;99.90
16479;DHT22;8350;52.316;10.530;2022-09-03T13:04:40;24.40;99.90
16479;DHT22;8350;52.316;10.530;2022-09-03T13:07:11;24.50;99.90
16479;DHT22;8350;52.316;10.530;2022-09-03T13:09:40;24.60;99.90
16479;DHT22;8350;52.316;10.530;2022-09-03T13:12:21;24.50;99.90
16479;DHT22;8350;52.316;10.530;2022-09-03T13:14:49;24.40;99.90
16479;DHT22;8350;52.316;10.530;2022-09-03T13:17:24;24.40;99.90
16479;DHT22;8350;52.316;10.530;2022-09-03T13:20:15;24.70;99.90
16479;DHT22;8350;52.316;10.530;2022-09-03T13:22:57;24.80;99.90
16479;DHT22;8350;52.316;10.530;2022-09-03T13:25:30;24.60;99.90
16479;DHT22;8350;52.316;10.530;2022-09-03T13:28:09;24.60;99.90
16479;DHT22;8350;52.316;10.530;2022-09-03T13:30:49;24.40;99.90
16479;DHT22;8350;52.316;10.530;2022-09-03T13:33:21;24.50;99.90
16479;DHT22;8350;52.316;10.530;2022-09-03T13:35:53;24.40;99.90
16479;DHT22;8350;52.316;10.530;2022-09-03T13:38:26;24.60;99.90
16479;DHT22;8350;52.316;10.530;2022-09-03T13:41:00;24.60;99.90
16479;DHT22;8350;52.316;10.530;2022-09-03T13:43:36;24.60;99.90
16479;DHT22;8350;52.316;10.530;2022-09-03T13:46:09;24.70;99.90
16479;DHT22;8350;52.316;10.530;2022-09-03T13:48:39;24.80;99.90
16479;DHT22;8350;52.316;10.530;2022-09-03T13:51:26;24.70;99.90
16479;DHT22;8350;52.316;10.530;2022-09-03T13:54:03;24.80;99.90
16479;DHT22;8350;52.316;10.530;2022-09-03T13:56:48;24.60;99.90
16479;DHT22;8350;52.316;10.530;2022-09-03T13:59:27;24.50;99.90
16479;DHT22;8350;52.316;10.530;2022-09-03T14:02:08;24.30;99.90
16479;DHT22;8350;52.316;10.530;2022-09-03T14:04:43;24.20;99.90
16479;DHT22;8350;52.316;10.530;2022-09-03T14:07:16;24.10;99.90
16479;DHT22;8350;52.316;10.530;2022-09-03T14:09:55;24.10;99.90
16479;DHT22;8350;52.316;10.530;2022-09-03T14:12:35;24.20;99.90
16479;DHT22;8350;52.316;10.530;2022-09-03T14:15:16;24.20;99.90
16479;DHT22;8350;52.316;10.530;2022-09-03T14:17:48;24.10;99.90
16479;DHT22;8350;52.316;10.530;2022-09-03T14:20:21;24.10;99.90
16479;DHT22;8350;52.316;10.530;2022-09-03T14:22:54;24.10;99.90
16479;DHT22;8350;52.316;10.530;2022-09-03T14:25:23;24.00;99.90
16479;DHT22;8350;52.316;10.530;2022-09-03T14:27:51;24.00;99.90
16479;DHT22;8350;52.316;10.530;2022-09-03T14:30:30;24.10;99.90
16479;DHT22;8350;52.316;10.530;2022-09-03T14:33:07;24.10;99.90
16479;DHT22;8350;52.316;10.530;2022-09-03T14:35:56;24.10;99.90
16479;DHT22;8350;52.316;10.530;2022-09-03T14:38:52;24.20;99.90
16479;DHT22;8350;52.316;10.530;2022-09-03T14:41:36;24.30;99.90
16479;DHT22;8350;52.316;10.530;2022-09-03T14:47:18;24.40;99.90
16479;DHT22;8350;52.316;10.530;2022-09-03T14:50:18;24.30;99.90
16479;DHT22;8350;52.316;10.530;2022-09-03T14:53:06;23.90;99.90
16479;DHT22;8350;52.316;10.530;2022-09-03T14:55:51;23.90;99.90
16479;DHT22;8350;52.316;10.530;2022-09-03T14:58:33;23.80;99.90
16479;DHT22;8350;52.316;10.530;2022-09-03T15:01:04;23.90;99.90
16479;DHT22;8350;52.316;10.530;2022-09-03T15:03:56;23.70;99.90
16479;DHT22;8350;52.316;10.530;2022-09-03T15:06:38;23.70;99.90
16479;DHT22;8350;52.316;10.530;2022-09-03T15:09:20;23.80;99.90
16479;DHT22;8350;52.316;10.530;2022-09-03T15:11:51;23.80;99.90
16479;DHT22;8350;52.316;10.530;2022-09-03T15:14:25;23.80;99.90
16479;DHT22;8350;52.316;10.530;2022-09-03T15:16:59;23.90;99.90
16479;DHT22;8350;52.316;10.530;2022-09-03T15:19:46;23.90;99.90
16479;DHT22;8350;52.316;10.530;2022-09-03T15:22:26;23.90;99.90
16479;DHT22;8350;52.316;10.530;2022-09-03T15:25:06;23.90;99.90
16479;DHT22;8350;52.316;10.530;2022-09-03T15:27:51;23.80;99.90
16479;DHT22;8350;52.316;10.530;2022-09-03T15:30:21;23.80;99.90
16479;DHT22;8350;52.316;10.530;2022-09-03T15:32:57;23.80;99.90
16479;DHT22;8350;52.316;10.530;2022-09-03T15:35:42;23.80;99.90
16479;DHT22;8350;52.316;10.530;2022-09-03T15:38:19;23.70;99.90
16479;DHT22;8350;52.316;10.530;2022-09-03T15:40:50;23.80;99.90
16479;DHT22;8350;52.316;10.530;2022-09-03T15:43:21;23.80;99.90
16479;DHT22;8350;52.316;10.530;2022-09-03T15:45:52;23.70;99.90
16479;DHT22;8350;52.316;10.530;2022-09-03T15:48:29;23.60;99.90
16479;DHT22;8350;52.316;10.530;2022-09-03T15:51:09;23.50;99.20
16479;DHT22;8350;52.316;10.530;2022-09-03T15:53:43;23.40;99.10
16479;DHT22;8350;52.316;10.530;2022-09-03T15:56:17;23.30;99.90
16479;DHT22;8350;52.316;10.530;2022-09-03T15:58:51;23.30;99.90
16479;DHT22;8350;52.316;10.530;2022-09-03T16:01:31;23.10;99.90
16479;DHT22;8350;52.316;10.530;2022-09-03T16:04:10;23.10;99.90
16479;DHT22;8350;52.316;10.530;2022-09-03T16:06:55;23.10;99.90
16479;DHT22;8350;52.316;10.530;2022-09-03T16:09:33;23.20;99.90
16479;DHT22;8350;52.316;10.530;2022-09-03T16:12:09;23.10;99.90
16479;DHT22;8350;52.316;10.530;2022-09-03T16:14:43;23.10;99.90
16479;DHT22;8350;52.316;10.530;2022-09-03T16:17:21;23.10;99.90
16479;DHT22;8350;52.316;10.530;2022-09-03T16:19:55;23.00;99.90
16479;DHT22;8350;52.316;10.530;2022-09-03T16:22:28;23.00;99.90
16479;DHT22;8350;52.316;10.530;2022-09-03T16:25:02;23.00;99.90
16479;DHT22;8350;52.316;10.530;2022-09-03T16:27:33;23.00;99.90